createdAt,value
2019-06-26T00:00:03.248Z,19.48
2019-06-26T00:01:37.601Z,19.50
2019-06-26T00:03:12.611Z,19.47
2019-06-26T00:04:47.004Z,19.47
2019-06-26T00:06:21.938Z,19.45
2019-06-26T00:07:56.281Z,19.43
2019-06-26T00:09:31.731Z,19.35
2019-06-26T00:11:06.100Z,19.43
2019-06-26T00:12:41.031Z,19.43
2019-06-26T00:14:15.452Z,19.42
2019-06-26T00:15:50.422Z,19.44
2019-06-26T00:17:24.781Z,19.44
2019-06-26T00:18:59.714Z,19.45
2019-06-26T00:20:34.056Z,19.45
2019-06-26T00:22:09.030Z,19.37
2019-06-26T00:23:43.377Z,19.34
2019-06-26T00:25:18.385Z,19.33
2019-06-26T00:26:52.768Z,19.37
2019-06-26T00:28:27.702Z,19.37
2019-06-26T00:30:02.064Z,19.34
2019-06-26T00:31:37.010Z,19.32
2019-06-26T00:33:11.390Z,19.25
2019-06-26T00:34:46.300Z,19.25
2019-06-26T00:36:20.780Z,19.30
2019-06-26T00:37:55.760Z,19.33
2019-06-26T00:39:30.162Z,19.33
2019-06-26T00:41:05.498Z,19.34
2019-06-26T00:42:39.946Z,19.34
2019-06-26T00:44:15.029Z,19.34
2019-06-26T00:45:49.401Z,19.35
2019-06-26T00:47:24.348Z,19.34
2019-06-26T00:48:58.674Z,19.28
2019-06-26T00:50:33.609Z,19.28
2019-06-26T00:52:07.958Z,19.33
2019-06-26T00:53:42.982Z,19.29
2019-06-26T00:55:17.332Z,19.28
2019-06-26T00:56:52.650Z,19.26
2019-06-26T00:58:27.033Z,19.27
2019-06-26T01:00:03.065Z,19.27
2019-06-26T01:01:38.034Z,19.27
2019-06-26T01:03:12.381Z,19.27
2019-06-26T01:04:48.409Z,19.26
2019-06-26T01:06:40.511Z,19.28
2019-06-26T01:08:14.848Z,19.27
2019-06-26T01:09:49.771Z,19.25
2019-06-26T01:11:24.120Z,19.25
2019-06-26T01:12:59.141Z,19.24
2019-06-26T01:14:33.485Z,19.22
2019-06-26T01:16:08.422Z,19.22
2019-06-26T01:17:42.829Z,19.22
2019-06-26T01:19:17.804Z,19.21
2019-06-26T01:20:52.132Z,19.20
2019-06-26T01:22:27.121Z,19.21
2019-06-26T01:24:01.450Z,19.21
2019-06-26T01:25:36.412Z,19.21
2019-06-26T01:27:10.751Z,19.22
2019-06-26T01:28:46.177Z,19.22
2019-06-26T01:30:20.849Z,19.23
2019-06-26T01:31:55.856Z,19.23
2019-06-26T01:33:30.209Z,19.24
2019-06-26T01:35:09.078Z,19.24
2019-06-26T01:36:43.416Z,19.25
2019-06-26T01:38:18.408Z,19.25
2019-06-26T01:39:52.752Z,19.26
2019-06-26T01:41:27.717Z,19.27
2019-06-26T01:43:02.136Z,19.28
2019-06-26T01:44:37.581Z,19.28
2019-06-26T01:46:11.931Z,19.21
2019-06-26T01:47:46.900Z,19.25
2019-06-26T01:49:21.236Z,19.25
2019-06-26T01:50:56.158Z,19.25
2019-06-26T01:52:30.508Z,19.24
2019-06-26T02:01:23.215Z,19.23
2019-06-26T02:02:58.146Z,19.22
2019-06-26T02:04:32.484Z,19.23
2019-06-26T02:06:07.424Z,19.25
2019-06-26T02:07:41.787Z,19.26
2019-06-26T02:09:16.730Z,19.24
2019-06-26T02:10:51.308Z,19.22
2019-06-26T02:12:26.374Z,19.18
2019-06-26T02:14:00.718Z,19.19
2019-06-26T02:15:35.669Z,19.18
2019-06-26T02:17:10.067Z,19.19
2019-06-26T02:18:46.048Z,19.20
2019-06-26T02:20:21.011Z,19.22
2019-06-26T02:21:55.870Z,19.24
2019-06-26T02:23:30.759Z,19.25
2019-06-26T02:25:06.221Z,19.24
2019-06-26T02:26:41.222Z,19.27
2019-06-26T02:28:15.530Z,19.25
2019-06-26T02:29:50.753Z,19.23
2019-06-26T02:31:25.095Z,19.24
2019-06-26T02:33:00.055Z,19.27
2019-06-26T02:34:34.397Z,19.29
2019-06-26T02:36:09.330Z,19.28
2019-06-26T02:37:43.678Z,19.26
2019-06-26T02:39:18.625Z,19.30
2019-06-26T02:40:53.070Z,19.30
2019-06-26T02:42:28.003Z,19.27
2019-06-26T02:44:02.427Z,19.33
2019-06-26T02:45:37.796Z,19.28
2019-06-26T02:47:19.368Z,19.28
2019-06-26T02:48:48.786Z,19.34
2019-06-26T02:50:23.136Z,19.34
2019-06-26T02:51:58.089Z,19.35
2019-06-26T02:53:32.447Z,19.35
2019-06-26T02:55:10.646Z,19.33
2019-06-26T02:56:44.997Z,19.33
2019-06-26T02:58:19.996Z,19.33
2019-06-26T02:59:54.318Z,19.33
2019-06-26T03:01:29.553Z,19.36
2019-06-26T03:03:03.896Z,19.39
2019-06-26T03:04:38.868Z,19.35
2019-06-26T03:06:13.285Z,19.35
2019-06-26T03:07:48.218Z,19.34
2019-06-26T03:21:24.751Z,19.17
2019-06-26T03:23:00.640Z,19.12
2019-06-26T03:24:34.994Z,19.15
2019-06-26T03:26:09.922Z,19.20
2019-06-26T03:27:44.300Z,19.20
2019-06-26T03:29:19.232Z,19.27
2019-06-26T03:30:53.582Z,19.31
2019-06-26T03:32:29.124Z,19.34
2019-06-26T03:34:04.677Z,19.36
2019-06-26T03:35:40.854Z,19.42
2019-06-26T03:37:15.421Z,19.42
2019-06-26T03:38:50.332Z,19.44
2019-06-26T03:40:24.789Z,19.48
2019-06-26T03:41:59.812Z,19.50
2019-06-26T03:43:35.566Z,19.53
2019-06-26T03:45:24.689Z,19.52
2019-06-26T03:46:47.143Z,19.55
2019-06-26T03:48:22.093Z,19.57
2019-06-26T03:49:56.424Z,19.61
2019-06-26T03:51:31.356Z,19.65
2019-06-26T03:53:05.826Z,19.69
2019-06-26T03:54:40.865Z,19.76
2019-06-26T03:56:15.214Z,19.76
2019-06-26T03:57:50.158Z,19.72
2019-06-26T03:59:24.603Z,19.73
2019-06-26T04:00:59.680Z,19.73
2019-06-26T04:02:34.084Z,19.83
2019-06-26T04:04:09.022Z,19.87
2019-06-26T04:05:43.378Z,19.91
2019-06-26T04:07:18.300Z,19.89
2019-06-26T04:08:52.690Z,20.03
2019-06-26T04:10:27.653Z,20.03
2019-06-26T04:12:02.040Z,20.06
2019-06-26T04:13:36.944Z,20.11
2019-06-26T04:15:11.435Z,20.16
2019-06-26T04:16:46.332Z,20.19
2019-06-26T04:18:21.092Z,20.21
2019-06-26T04:19:56.058Z,20.22
2019-06-26T04:21:30.400Z,20.24
2019-06-26T04:23:05.325Z,20.24
2019-06-26T04:24:39.734Z,20.25
2019-06-26T04:26:14.672Z,20.25
2019-06-26T04:27:49.123Z,20.35
2019-06-26T04:29:24.082Z,20.40
2019-06-26T04:30:58.473Z,20.42
2019-06-26T04:32:33.404Z,20.48
2019-06-26T04:34:07.756Z,20.52
2019-06-26T04:35:42.797Z,20.63
2019-06-26T04:37:17.148Z,20.63
2019-06-26T04:38:52.119Z,20.70
2019-06-26T04:40:26.466Z,20.76
2019-06-26T04:42:01.427Z,20.76
2019-06-26T04:43:35.739Z,20.85
2019-06-26T04:45:11.004Z,20.89
2019-06-26T04:46:45.394Z,20.94
2019-06-26T04:48:20.499Z,21.01
2019-06-26T04:49:55.263Z,21.08
2019-06-26T04:51:30.219Z,21.11
2019-06-26T04:53:04.563Z,21.15
2019-06-26T04:54:39.568Z,21.23
2019-06-26T04:56:13.931Z,21.35
2019-06-26T04:57:48.941Z,21.41
2019-06-26T04:59:23.292Z,21.48
2019-06-26T05:00:58.265Z,21.58
2019-06-26T05:02:32.690Z,21.66
2019-06-26T05:04:07.620Z,21.71
2019-06-26T05:05:44.412Z,21.79
2019-06-26T05:07:19.048Z,21.79
2019-06-26T05:08:53.393Z,21.83
2019-06-26T05:10:28.332Z,21.81
2019-06-26T05:12:02.810Z,21.88
2019-06-26T05:13:37.741Z,21.82
2019-06-26T05:15:12.619Z,21.79
2019-06-26T05:16:47.561Z,21.81
2019-06-26T05:18:21.883Z,21.84
2019-06-26T05:19:56.808Z,21.82
2019-06-26T05:21:31.183Z,21.93
2019-06-26T05:23:06.116Z,22.08
2019-06-26T05:24:40.495Z,22.23
2019-06-26T05:26:16.345Z,22.36
2019-06-26T05:27:50.671Z,22.43
2019-06-26T05:29:26.393Z,22.49
2019-06-26T05:31:00.796Z,22.46
2019-06-26T05:32:35.726Z,22.44
2019-06-26T05:34:11.148Z,22.37
2019-06-26T05:35:46.292Z,22.33
2019-06-26T05:37:21.937Z,22.37
2019-06-26T05:38:56.871Z,22.43
2019-06-26T05:40:31.217Z,22.38
2019-06-26T05:42:06.898Z,22.41
2019-06-26T05:43:41.594Z,22.41
2019-06-26T05:45:17.024Z,22.42
2019-06-26T05:46:51.423Z,22.42
2019-06-26T05:48:26.766Z,22.49
2019-06-26T06:24:29.037Z,23.56
2019-06-26T06:26:03.962Z,23.67
2019-06-26T06:27:38.306Z,23.83
2019-06-26T06:29:13.310Z,23.93
2019-06-26T06:30:47.625Z,24.01
2019-06-26T06:32:22.574Z,23.97
2019-06-26T06:33:56.950Z,24.10
2019-06-26T06:35:31.865Z,24.36
2019-06-26T06:37:06.193Z,24.61
2019-06-26T06:38:41.097Z,24.84
2019-06-26T06:40:15.753Z,25.08
2019-06-26T06:41:50.671Z,25.32
2019-06-26T06:43:24.992Z,25.49
2019-06-26T06:44:59.991Z,25.48
2019-06-26T06:46:34.359Z,25.40
2019-06-26T06:48:10.007Z,25.21
2019-06-26T06:49:44.666Z,25.12
2019-06-26T06:51:19.580Z,25.31
2019-06-26T06:52:53.961Z,25.55
2019-06-26T06:54:28.902Z,25.68
2019-06-26T06:56:03.234Z,25.60
2019-06-26T06:57:38.286Z,25.54
2019-06-26T06:59:12.610Z,25.25
2019-06-26T07:00:47.584Z,25.14
2019-06-26T07:02:21.932Z,25.19
2019-06-26T07:03:56.890Z,25.15
2019-06-26T07:05:31.201Z,25.33
2019-06-26T07:07:06.122Z,25.41
2019-06-26T07:08:40.468Z,25.42
2019-06-26T07:10:15.404Z,25.59
2019-06-26T07:11:50.121Z,25.51
2019-06-26T07:13:24.774Z,25.36
2019-06-26T07:14:59.105Z,25.27
2019-06-26T07:16:34.071Z,25.75
2019-06-26T07:18:08.373Z,26.25
2019-06-26T07:19:43.298Z,26.99
2019-06-26T07:21:17.622Z,27.75
2019-06-26T07:22:52.564Z,28.30
2019-06-26T07:24:26.888Z,28.74
2019-06-26T07:26:02.216Z,29.38
2019-06-26T07:27:37.605Z,30.12
2019-06-26T07:29:12.552Z,30.63
2019-06-26T07:30:46.924Z,31.17
2019-06-26T07:32:21.833Z,31.84
2019-06-26T07:33:56.159Z,32.21
2019-06-26T07:35:31.074Z,32.15
2019-06-26T07:37:05.502Z,31.55
2019-06-26T07:38:40.419Z,31.23
2019-06-26T07:40:17.053Z,31.32
2019-06-26T07:41:51.999Z,31.39
2019-06-26T07:43:26.327Z,31.17
2019-06-26T07:45:01.249Z,31.29
2019-06-26T07:46:35.631Z,31.57
2019-06-26T07:48:10.613Z,31.64
2019-06-26T07:49:45.276Z,31.95
2019-06-26T07:51:20.238Z,32.43
2019-06-26T07:52:54.570Z,32.41
2019-06-26T07:54:29.478Z,32.20
2019-06-26T07:56:03.913Z,31.49
2019-06-26T07:57:38.862Z,31.00
2019-06-26T07:59:13.183Z,29.77
2019-06-26T08:00:48.100Z,29.28
2019-06-26T08:02:22.440Z,29.36
2019-06-26T08:03:57.419Z,29.53
2019-06-26T08:05:31.721Z,29.73
2019-06-26T08:07:06.639Z,29.33
2019-06-26T08:08:40.967Z,29.67
2019-06-26T08:10:16.324Z,29.78
2019-06-26T08:11:50.648Z,29.94
2019-06-26T08:13:25.558Z,29.99
2019-06-26T08:14:59.940Z,29.81
2019-06-26T08:16:34.924Z,29.95
2019-06-26T08:18:09.255Z,30.07
2019-06-26T08:19:44.184Z,30.08
2019-06-26T08:21:18.516Z,30.11
2019-06-26T08:22:53.535Z,30.09
2019-06-26T08:24:27.868Z,29.88
2019-06-26T08:26:02.834Z,29.62
2019-06-26T08:27:37.575Z,29.39
2019-06-26T08:29:12.887Z,29.31
2019-06-26T08:30:47.218Z,29.60
2019-06-26T08:32:25.096Z,29.65
2019-06-26T08:33:58.238Z,29.41
2019-06-26T08:35:33.159Z,29.25
2019-06-26T08:37:07.495Z,29.45
2019-06-26T08:38:42.443Z,29.24
2019-06-26T08:40:17.429Z,29.20
2019-06-26T08:41:52.349Z,29.16
2019-06-26T08:43:26.660Z,29.44
2019-06-26T08:45:02.114Z,29.75
2019-06-26T08:46:36.423Z,29.95
2019-06-26T08:48:22.600Z,29.94
2019-06-26T08:49:47.632Z,29.90
2019-06-26T08:51:22.967Z,29.96
2019-06-26T08:52:57.317Z,30.19
2019-06-26T08:54:32.221Z,30.28
2019-06-26T08:56:06.523Z,30.60
2019-06-26T08:57:41.474Z,31.42
2019-06-26T08:59:15.814Z,32.13
2019-06-26T09:00:50.756Z,32.73
2019-06-26T09:02:25.095Z,33.33
2019-06-26T09:04:00.056Z,33.70
2019-06-26T09:05:47.616Z,34.02
2019-06-26T09:07:11.031Z,34.50
2019-06-26T09:08:45.373Z,34.98
2019-06-26T09:10:20.381Z,35.21
2019-06-26T09:11:54.713Z,35.58
2019-06-26T09:13:29.408Z,36.08
2019-06-26T09:15:04.835Z,35.87
2019-06-26T09:16:39.831Z,35.47
2019-06-26T09:18:14.208Z,35.36
2019-06-26T09:19:49.121Z,35.16
2019-06-26T09:21:23.458Z,34.04
2019-06-26T09:22:58.407Z,33.33
2019-06-26T09:24:32.750Z,33.30
2019-06-26T09:26:07.736Z,32.74
2019-06-26T09:27:42.068Z,32.37
2019-06-26T09:29:17.016Z,32.30
2019-06-26T09:30:51.345Z,32.68
2019-06-26T09:32:26.263Z,33.54
2019-06-26T09:34:00.588Z,34.26
2019-06-26T09:35:35.560Z,34.88
2019-06-26T09:37:09.915Z,35.38
2019-06-26T09:38:44.818Z,35.66
2019-06-26T09:40:19.297Z,36.25
2019-06-26T09:41:54.209Z,35.87
2019-06-26T09:43:28.533Z,35.50
2019-06-26T09:45:03.554Z,34.86
2019-06-26T09:46:37.903Z,33.60
2019-06-26T09:48:12.893Z,32.77
2019-06-26T09:49:47.219Z,32.69
2019-06-26T09:51:22.451Z,31.88
2019-06-26T09:52:56.875Z,32.04
2019-06-26T09:54:31.810Z,32.58
2019-06-26T09:56:06.229Z,32.53
2019-06-26T09:57:41.139Z,32.56
2019-06-26T09:59:15.511Z,32.69
2019-06-26T10:00:50.429Z,32.82
2019-06-26T10:02:25.156Z,32.79
2019-06-26T10:04:00.067Z,33.12
2019-06-26T10:05:34.435Z,33.78
2019-06-26T10:07:09.370Z,33.81
2019-06-26T10:08:43.754Z,33.95
2019-06-26T10:10:18.947Z,34.17
2019-06-26T10:11:53.319Z,33.55
2019-06-26T10:13:28.230Z,33.45
2019-06-26T10:15:02.897Z,33.27
2019-06-26T10:16:37.815Z,32.91
2019-06-26T10:18:12.177Z,32.94
2019-06-26T10:19:47.145Z,32.71
2019-06-26T10:21:23.696Z,31.94
2019-06-26T10:22:58.145Z,31.53
2019-06-26T10:24:32.475Z,31.28
2019-06-26T10:26:07.495Z,31.21
2019-06-26T10:27:41.850Z,31.45
2019-06-26T10:29:16.780Z,32.04
2019-06-26T10:30:51.119Z,32.20
2019-06-26T10:32:26.034Z,32.31
2019-06-26T10:34:00.356Z,32.71
2019-06-26T10:35:35.306Z,32.62
2019-06-26T10:37:09.630Z,32.66
2019-06-26T10:38:44.581Z,32.25
2019-06-26T10:40:18.946Z,32.36
2019-06-26T10:41:55.209Z,32.71
2019-06-26T10:43:29.707Z,32.54
2019-06-26T10:45:06.519Z,32.22
2019-06-26T10:46:40.887Z,31.37
2019-06-26T10:48:15.820Z,31.08
2019-06-26T10:49:50.142Z,31.39
2019-06-26T10:51:25.422Z,31.72
2019-06-26T10:52:59.751Z,31.41
2019-06-26T10:54:34.707Z,31.25
2019-06-26T10:56:09.022Z,31.23
2019-06-26T10:57:44.296Z,31.11
2019-06-26T10:59:18.774Z,31.29
2019-06-26T11:00:53.728Z,31.26
2019-06-26T11:02:28.068Z,31.41
2019-06-26T11:04:02.924Z,30.88
2019-06-26T11:05:37.266Z,30.79
2019-06-26T11:07:12.227Z,30.63
2019-06-26T11:08:46.523Z,30.65
2019-06-26T11:10:23.407Z,30.90
2019-06-26T11:11:57.809Z,31.52
2019-06-26T11:13:32.775Z,31.84
2019-06-26T11:15:08.419Z,32.28
2019-06-26T11:16:43.710Z,32.68
2019-06-26T11:18:18.277Z,32.66
2019-06-26T11:19:55.585Z,32.31
2019-06-26T11:21:29.496Z,32.22
2019-06-26T11:23:04.841Z,32.30
2019-06-26T11:24:40.327Z,32.64
2019-06-26T11:26:15.234Z,32.70
2019-06-26T11:27:49.556Z,32.60
2019-06-26T11:29:24.754Z,32.62
2019-06-26T11:30:59.150Z,32.00
2019-06-26T11:32:34.099Z,31.70
2019-06-26T11:34:08.426Z,31.26
2019-06-26T11:35:43.527Z,31.39
2019-06-26T11:37:17.881Z,31.31
2019-06-26T11:38:52.797Z,31.08
2019-06-26T11:40:27.317Z,31.06
2019-06-26T11:42:02.515Z,31.08
2019-06-26T11:43:36.875Z,31.07
2019-06-26T11:45:12.268Z,30.98
2019-06-26T11:46:46.712Z,31.03
2019-06-26T11:48:21.910Z,30.91
2019-06-26T11:50:00.327Z,30.86
2019-06-26T11:51:32.866Z,31.17
2019-06-26T11:53:07.277Z,30.99
2019-06-26T11:54:42.529Z,31.00
2019-06-26T11:56:16.960Z,31.11
2019-06-26T11:57:51.983Z,31.50
2019-06-26T11:59:27.269Z,31.63
2019-06-26T12:01:04.093Z,31.69
2019-06-26T12:02:38.498Z,31.46
2019-06-26T12:04:13.163Z,31.37
2019-06-26T12:05:47.488Z,31.13
2019-06-26T12:07:22.954Z,31.24
2019-06-26T12:08:57.275Z,31.15
2019-06-26T12:10:31.897Z,31.24
2019-06-26T12:12:06.226Z,31.03
2019-06-26T12:13:41.453Z,30.80
2019-06-26T12:15:17.481Z,30.63
2019-06-26T12:16:52.417Z,30.63
2019-06-26T12:18:26.735Z,30.47
2019-06-26T12:20:17.149Z,30.41
2019-06-26T12:21:37.821Z,30.44
2019-06-26T12:23:12.735Z,30.39
2019-06-26T12:24:47.059Z,30.32
2019-06-26T12:26:22.376Z,30.37
2019-06-26T12:27:56.696Z,30.27
2019-06-26T12:29:33.041Z,30.40
2019-06-26T12:31:09.087Z,30.66
2019-06-26T12:33:01.558Z,30.61
2019-06-26T12:34:20.455Z,30.53
2019-06-26T12:35:55.361Z,30.35
2019-06-26T12:37:37.681Z,30.37
2019-06-26T12:39:10.073Z,30.36
2019-06-26T12:40:44.403Z,30.53
2019-06-26T12:42:19.388Z,30.56
2019-06-26T12:43:53.702Z,30.73
2019-06-26T12:45:28.779Z,30.84
2019-06-26T12:47:03.117Z,31.01
2019-06-26T12:48:39.574Z,30.92
2019-06-26T12:50:14.683Z,30.90
2019-06-26T12:51:49.985Z,31.07
2019-06-26T12:53:24.703Z,31.21
2019-06-26T12:54:59.614Z,31.28
2019-06-26T12:56:33.951Z,31.14
2019-06-26T12:58:14.762Z,30.75
2019-06-26T12:59:56.577Z,31.56
2019-06-26T13:01:24.917Z,31.70
2019-06-26T13:02:57.937Z,31.79
2019-06-26T13:04:33.276Z,31.87
2019-06-26T13:06:07.603Z,31.87
2019-06-26T13:07:43.312Z,31.37
2019-06-26T13:09:17.619Z,30.80
2019-06-26T13:10:52.872Z,30.63
2019-06-26T13:12:27.179Z,30.33
2019-06-26T13:14:03.265Z,30.44
2019-06-26T13:15:37.805Z,30.70
2019-06-26T13:17:12.837Z,30.68
2019-06-26T13:18:47.242Z,30.69
2019-06-26T13:20:22.149Z,30.65
2019-06-26T13:21:56.471Z,30.59
2019-06-26T13:23:31.801Z,30.74
2019-06-26T13:25:07.696Z,30.96
2019-06-26T13:26:42.638Z,31.01
2019-06-26T13:28:16.972Z,31.19
2019-06-26T13:29:52.100Z,31.09
2019-06-26T13:31:26.434Z,31.07
2019-06-26T13:33:01.127Z,31.17
2019-06-26T13:34:35.453Z,31.40
2019-06-26T13:36:10.658Z,31.79
2019-06-26T13:37:44.983Z,32.07
2019-06-26T13:39:20.098Z,32.30
2019-06-26T13:40:54.433Z,32.22
2019-06-26T13:42:29.603Z,32.18
2019-06-26T13:44:03.935Z,32.10
2019-06-26T13:45:38.878Z,32.11
2019-06-26T13:47:13.199Z,32.04
2019-06-26T13:48:48.325Z,32.28
2019-06-26T13:50:22.648Z,32.36
2019-06-26T13:51:57.595Z,32.42
2019-06-26T13:53:31.972Z,32.24
2019-06-26T13:55:07.813Z,31.91
2019-06-26T13:56:42.142Z,31.87
2019-06-26T13:58:17.101Z,31.74
2019-06-26T13:59:51.540Z,31.64
2019-06-26T14:01:26.801Z,31.58
2019-06-26T14:03:01.245Z,31.27
2019-06-26T14:04:36.127Z,31.14
2019-06-26T14:06:10.459Z,30.84
2019-06-26T14:07:45.536Z,30.76
2019-06-26T14:09:19.866Z,30.52
2019-06-26T14:10:54.846Z,30.48
2019-06-26T14:12:29.181Z,30.48
2019-06-26T14:14:04.368Z,30.29
2019-06-26T14:15:38.757Z,30.08
2019-06-26T14:17:13.666Z,29.99
2019-06-26T14:18:47.993Z,29.95
2019-06-26T14:20:23.479Z,29.83
2019-06-26T14:21:57.770Z,29.65
2019-06-26T14:23:32.683Z,29.50
2019-06-26T14:25:08.447Z,29.25
2019-06-26T14:26:43.556Z,29.03
2019-06-26T14:28:19.707Z,28.71
2019-06-26T14:29:54.518Z,28.43
2019-06-26T14:31:53.244Z,28.22
2019-06-26T14:33:28.157Z,27.66
2019-06-26T14:35:05.021Z,26.79
2019-06-26T14:36:41.198Z,26.00
2019-06-26T14:38:15.683Z,25.12
2019-06-26T14:39:50.590Z,24.72
2019-06-26T14:41:25.282Z,24.08
2019-06-26T14:43:00.195Z,23.24
2019-06-26T14:44:34.769Z,22.76
2019-06-26T14:46:10.131Z,22.43
2019-06-26T14:47:44.457Z,22.32
2019-06-26T14:49:19.391Z,22.03
2019-06-26T14:50:53.842Z,21.81
2019-06-26T14:52:29.801Z,21.67
2019-06-26T14:54:04.228Z,21.51
2019-06-26T14:55:39.140Z,21.47
2019-06-26T14:57:13.780Z,21.45
2019-06-26T14:58:48.740Z,21.42
2019-06-26T15:00:23.173Z,21.43
2019-06-26T15:01:58.976Z,21.40
2019-06-26T15:03:33.422Z,21.40
2019-06-26T15:05:09.369Z,21.41
2019-06-26T15:06:43.690Z,21.43
2019-06-26T15:08:18.602Z,21.45
2019-06-26T15:09:53.168Z,21.45
2019-06-26T15:11:28.120Z,21.44
2019-06-26T15:13:02.529Z,21.37
2019-06-26T15:14:37.471Z,21.39
2019-06-26T15:16:12.154Z,21.40
2019-06-26T15:17:47.061Z,21.46
2019-06-26T15:19:21.395Z,21.47
2019-06-26T15:20:56.339Z,21.48
2019-06-26T15:22:32.311Z,21.45
2019-06-26T15:24:07.237Z,21.41
2019-06-26T15:25:41.560Z,21.41
2019-06-26T15:27:16.874Z,21.41
2019-06-26T15:28:51.450Z,21.48
2019-06-26T15:30:27.090Z,21.55
2019-06-26T15:32:01.436Z,21.59
2019-06-26T15:33:36.850Z,21.63
2019-06-26T15:35:12.079Z,21.64
2019-06-26T15:36:47.060Z,21.70
2019-06-26T15:38:21.499Z,21.75
2019-06-26T15:39:56.480Z,21.78
2019-06-26T15:41:31.163Z,21.10
2019-06-26T15:43:05.920Z,21.78
2019-06-26T15:44:40.294Z,21.84
2019-06-26T15:46:15.209Z,21.80
2019-06-26T15:47:49.744Z,21.81
2019-06-26T15:49:24.661Z,21.80
2019-06-26T15:50:59.040Z,21.81
2019-06-26T15:52:33.962Z,21.87
2019-06-26T15:54:08.516Z,21.90
2019-06-26T15:55:43.421Z,21.94
2019-06-26T15:57:17.817Z,22.01
2019-06-26T15:58:53.123Z,22.10
2019-06-26T16:00:27.709Z,22.18
2019-06-26T16:02:02.626Z,22.27
2019-06-26T16:03:36.998Z,22.39
2019-06-26T16:05:12.554Z,22.47
2019-06-26T16:06:47.150Z,22.56
2019-06-26T16:08:22.089Z,22.65
2019-06-26T16:09:56.409Z,22.73
2019-06-26T16:11:31.392Z,22.78
2019-06-26T16:13:05.994Z,22.83
2019-06-26T16:14:41.197Z,22.90
2019-06-26T16:16:15.596Z,22.97
2019-06-26T16:17:57.686Z,22.97
2019-06-26T16:19:32.849Z,22.98
2019-06-26T16:21:08.707Z,22.90
2019-06-26T16:22:43.605Z,22.94
2019-06-26T16:24:17.974Z,22.98
2019-06-26T16:25:53.278Z,23.00
2019-06-26T16:27:27.602Z,23.03
2019-06-26T16:29:02.514Z,23.06
2019-06-26T16:30:36.947Z,23.04
2019-06-26T16:32:12.366Z,23.05
2019-06-26T16:33:46.686Z,23.12
2019-06-26T16:35:21.338Z,23.17
2019-06-26T16:36:55.699Z,23.17
2019-06-26T16:38:31.142Z,23.15
2019-06-26T16:40:08.988Z,23.14
2019-06-26T16:41:44.202Z,23.03
2019-06-26T16:43:18.579Z,22.86
2019-06-26T16:44:53.709Z,22.70
2019-06-26T16:46:28.034Z,22.62
2019-06-26T16:48:02.947Z,22.63
2019-06-26T16:49:37.310Z,22.60
2019-06-26T16:51:12.797Z,22.60
2019-06-26T16:52:49.546Z,22.60
2019-06-26T16:54:26.630Z,22.62
2019-06-26T16:56:01.003Z,22.62
2019-06-26T16:57:37.238Z,22.59
2019-06-26T16:59:11.579Z,22.55
2019-06-26T17:00:46.540Z,22.54
2019-06-26T17:02:20.873Z,22.50
2019-06-26T17:03:56.309Z,22.37
2019-06-26T17:05:30.632Z,22.24
2019-06-26T17:07:05.689Z,22.23
2019-06-26T17:08:40.099Z,22.25
2019-06-26T17:10:15.571Z,22.25
2019-06-26T17:11:49.899Z,22.23
2019-06-26T17:13:24.881Z,22.22
2019-06-26T17:14:59.208Z,22.22
2019-06-26T17:16:34.351Z,22.16
2019-06-26T17:18:08.685Z,22.09
2019-06-26T17:19:43.612Z,22.05
2019-06-26T17:21:17.940Z,22.04
2019-06-26T17:23:05.094Z,22.00
2019-06-26T17:24:30.019Z,21.97
2019-06-26T17:26:06.359Z,21.96
2019-06-26T17:27:40.699Z,22.01
2019-06-26T17:29:16.129Z,22.03
2019-06-26T17:30:52.844Z,22.05
2019-06-26T17:32:27.092Z,22.05
2019-06-26T17:34:01.410Z,22.01
2019-06-26T17:35:36.652Z,22.02
2019-06-26T17:37:10.975Z,22.05
2019-06-26T17:38:45.930Z,22.05
2019-06-26T17:40:21.046Z,22.05
2019-06-26T17:41:56.350Z,22.04
2019-06-26T17:43:32.346Z,22.07
2019-06-26T17:45:08.266Z,22.07
2019-06-26T17:46:42.590Z,22.06
2019-06-26T17:48:17.789Z,22.02
2019-06-26T17:49:52.314Z,22.00
2019-06-26T17:51:27.402Z,21.99
2019-06-26T17:53:01.726Z,21.96
2019-06-26T17:54:36.914Z,21.93
2019-06-26T17:56:11.243Z,21.93
2019-06-26T17:57:47.629Z,21.91
2019-06-26T17:59:22.374Z,21.89
2019-06-26T18:00:57.501Z,21.85
2019-06-26T18:02:31.827Z,21.83
2019-06-26T18:04:06.819Z,21.80
2019-06-26T18:05:42.405Z,21.77
2019-06-26T18:07:17.173Z,21.74
2019-06-26T18:08:51.580Z,21.71
2019-06-26T18:10:26.533Z,21.66
2019-06-26T18:12:00.875Z,21.58
2019-06-26T18:13:36.092Z,21.52
2019-06-26T18:15:10.627Z,21.50
2019-06-26T18:16:45.667Z,21.48
2019-06-26T18:18:20.091Z,21.48
2019-06-26T18:19:55.429Z,21.49
2019-06-26T18:21:29.846Z,21.48
2019-06-26T18:23:07.847Z,21.46
2019-06-26T18:24:41.863Z,21.42
2019-06-26T18:26:22.371Z,21.40
2019-06-26T18:27:56.716Z,21.42
2019-06-26T18:29:31.688Z,21.38
2019-06-26T18:31:06.012Z,21.32
2019-06-26T18:32:41.231Z,21.28
2019-06-26T18:34:15.630Z,21.28
2019-06-26T18:35:50.576Z,21.27
2019-06-26T18:37:24.904Z,21.25
2019-06-26T18:39:00.317Z,21.22
2019-06-26T18:40:34.644Z,21.15
2019-06-26T18:42:09.594Z,21.14
2019-06-26T18:43:43.967Z,21.08
2019-06-26T18:45:19.388Z,21.05
2019-06-26T18:46:53.720Z,21.00
2019-06-26T18:48:28.986Z,20.97
2019-06-26T18:50:04.705Z,20.95
2019-06-26T18:51:39.772Z,20.93
2019-06-26T18:53:15.289Z,20.90
2019-06-26T18:54:51.159Z,20.87
2019-06-26T18:56:25.487Z,20.84
2019-06-26T18:58:00.880Z,20.83
2019-06-26T18:59:36.835Z,20.80
2019-06-26T19:01:11.551Z,20.78
2019-06-26T19:02:45.881Z,20.80
2019-06-26T19:04:21.691Z,20.80
2019-06-26T19:05:56.059Z,20.80
2019-06-26T19:07:31.067Z,20.84
2019-06-26T19:09:06.841Z,20.82
2019-06-26T19:10:42.350Z,20.77
2019-06-26T19:12:16.702Z,20.75
2019-06-26T19:13:51.626Z,20.74
2019-06-26T19:15:26.055Z,20.76
2019-06-26T19:17:01.500Z,20.11
2019-06-26T19:18:35.840Z,20.72
2019-06-26T19:20:11.419Z,20.71
2019-06-26T19:21:45.766Z,20.68
2019-06-26T19:23:20.939Z,20.67
2019-06-26T19:24:55.322Z,20.68
2019-06-26T19:26:30.282Z,20.68
2019-06-26T19:28:04.611Z,20.66
2019-06-26T19:29:39.978Z,20.61
2019-06-26T19:31:14.380Z,20.59
2019-06-26T19:32:49.304Z,20.57
2019-06-26T19:34:23.638Z,20.54
2019-06-26T19:36:00.502Z,20.47
2019-06-26T19:37:35.051Z,20.47
2019-06-26T19:39:09.737Z,20.54
2019-06-26T19:40:44.108Z,20.53
2019-06-26T19:42:19.456Z,20.53
2019-06-26T19:43:53.887Z,20.53
2019-06-26T19:45:28.912Z,20.45
2019-06-26T19:47:03.401Z,20.50
2019-06-26T19:48:38.366Z,20.48
2019-06-26T19:50:15.952Z,20.46
2019-06-26T19:51:52.376Z,20.46
2019-06-26T19:53:26.788Z,20.41
2019-06-26T19:55:01.947Z,20.39
2019-06-26T19:56:36.299Z,20.38
2019-06-26T19:58:10.946Z,20.35
2019-06-26T19:59:45.399Z,20.33
2019-06-26T20:01:20.418Z,20.29
2019-06-26T20:02:56.114Z,20.27
2019-06-26T20:04:31.037Z,20.23
2019-06-26T20:06:05.603Z,20.19
2019-06-26T20:07:40.845Z,20.15
2019-06-26T20:09:16.649Z,20.08
2019-06-26T20:10:51.619Z,20.02
2019-06-26T20:12:25.959Z,19.99
2019-06-26T20:14:02.595Z,19.95
2019-06-26T20:15:36.926Z,19.92
2019-06-26T20:17:13.351Z,19.89
2019-06-26T20:18:47.697Z,19.86
2019-06-26T20:20:22.908Z,19.82
2019-06-26T20:21:57.224Z,19.81
2019-06-26T20:23:32.323Z,19.81
2019-06-26T20:25:09.328Z,19.80
2019-06-26T20:26:44.525Z,19.76
2019-06-26T20:28:18.901Z,19.76
2019-06-26T20:29:54.438Z,19.76
2019-06-26T20:31:28.793Z,19.78
2019-06-26T20:33:04.162Z,19.78
2019-06-26T20:34:39.890Z,19.68
2019-06-26T20:36:14.928Z,19.68
2019-06-26T20:37:49.286Z,19.75
2019-06-26T20:39:24.481Z,19.74
2019-06-26T20:40:58.860Z,19.74
2019-06-26T20:42:33.966Z,19.73
2019-06-26T20:44:08.322Z,19.69
2019-06-26T20:45:43.770Z,19.59
2019-06-26T20:47:18.122Z,19.63
2019-06-26T20:48:53.049Z,19.60
2019-06-26T20:50:27.435Z,19.60
2019-06-26T20:52:03.890Z,19.58
2019-06-26T20:53:38.274Z,19.58
2019-06-26T20:55:13.304Z,19.57
2019-06-26T20:56:49.141Z,19.46
2019-06-26T20:58:24.521Z,19.46
2019-06-26T20:59:58.934Z,19.44
2019-06-26T21:01:33.861Z,19.41
2019-06-26T21:03:08.214Z,19.43
2019-06-26T21:04:44.484Z,19.40
2019-06-26T21:06:18.925Z,19.31
2019-06-26T21:07:53.842Z,19.31
2019-06-26T21:09:28.179Z,19.34
2019-06-26T21:11:03.325Z,19.30
2019-06-26T21:12:37.708Z,19.33
2019-06-26T21:14:12.646Z,19.31
2019-06-26T21:15:47.036Z,19.23